Terminal Aerodrome Forecast
Issued by NWS Charleston, WV

Current Version | Previous Version | Text Only | Print | Product List | Glossary Off
Versions: 1 2 3 4 5 6 7 8 9 10 11 12 13 14 15 16 17 18 19 20 21 22 23 24 25 26 27 28

000
FTUS41 KRLX 030535
TAFCRW
TAF
KCRW 030535Z 0306/0406 00000KT 6SM BR OVC008
     FM030900 00000KT 3SM BR OVC009
     FM031300 00000KT 6SM BR OVC010
     FM031500 VRB03KT P6SM OVC015
     FM031700 12003KT P6SM OVC025
     FM032100 13005KT P6SM BKN035=

USA.gov is the U.S. government's official web portal to all federal, state and local government web resources and services.